createdAt,value
2022-10-24T00:00:05.170Z,50.20
2022-10-24T00:01:05.030Z,50.20
2022-10-24T00:02:05.070Z,50.10
2022-10-24T00:03:05.124Z,50.10
2022-10-24T00:05:04.993Z,50.10
2022-10-24T00:06:04.993Z,50.20
2022-10-24T00:07:04.973Z,50.20
2022-10-24T00:08:04.994Z,50.10
2022-10-24T00:09:04.942Z,50.20
2022-10-24T00:10:04.932Z,50.10
2022-10-24T00:11:04.928Z,50.10
2022-10-24T00:12:04.911Z,50.20
2022-10-24T00:13:04.896Z,50.20
2022-10-24T00:14:04.903Z,50.20
2022-10-24T00:15:04.872Z,50.20
2022-10-24T00:16:04.868Z,50.31
2022-10-24T00:17:04.854Z,50.23
2022-10-24T00:18:04.846Z,50.33
2022-10-24T00:19:04.857Z,50.33
2022-10-24T00:20:04.823Z,50.33
2022-10-24T00:21:04.815Z,50.43
2022-10-24T00:22:04.806Z,50.12
2022-10-24T00:23:04.775Z,50.23
2022-10-24T00:24:04.802Z,50.23
2022-10-24T00:25:04.787Z,50.23
2022-10-24T00:26:04.746Z,50.12
2022-10-24T00:27:04.805Z,50.12
2022-10-24T00:28:04.732Z,50.23
2022-10-24T00:29:04.716Z,50.23
2022-10-24T00:30:04.696Z,50.12
2022-10-24T00:31:04.752Z,50.23
2022-10-24T00:32:04.697Z,50.12
2022-10-24T00:33:04.690Z,50.23
2022-10-24T00:34:04.977Z,50.12
2022-10-24T00:35:04.647Z,50.23
2022-10-24T00:36:04.636Z,50.12
2022-10-24T00:37:04.647Z,50.23
2022-10-24T00:38:04.654Z,50.23
2022-10-24T00:39:04.610Z,50.23
2022-10-24T00:40:04.624Z,50.12
2022-10-24T00:41:04.572Z,50.12
2022-10-24T00:42:04.618Z,50.12
2022-10-24T00:43:04.559Z,50.12
2022-10-24T00:44:04.554Z,50.23
2022-10-24T00:45:04.538Z,50.23
2022-10-24T00:46:04.531Z,50.23
2022-10-24T00:47:04.524Z,50.23
2022-10-24T00:48:04.522Z,50.23
2022-10-24T00:49:04.492Z,50.23
2022-10-24T00:50:04.490Z,50.23
2022-10-24T00:51:04.466Z,50.25
2022-10-24T00:52:04.463Z,50.25
2022-10-24T00:53:04.443Z,50.25
2022-10-24T00:54:04.480Z,50.25
2022-10-24T00:55:04.444Z,50.25
2022-10-24T00:56:04.406Z,50.15
2022-10-24T00:57:04.400Z,50.25
2022-10-24T00:58:04.391Z,50.35
2022-10-24T00:59:04.381Z,50.35
2022-10-24T01:00:04.391Z,50.45
2022-10-24T01:01:04.402Z,50.35
2022-10-24T01:02:04.412Z,50.25
2022-10-24T01:03:04.330Z,50.25
2022-10-24T01:04:05.034Z,50.35
2022-10-24T01:05:04.363Z,50.35
2022-10-24T01:06:04.308Z,50.35
2022-10-24T01:07:04.291Z,50.15
2022-10-24T01:08:04.264Z,50.35
2022-10-24T01:09:04.264Z,50.25
2022-10-24T01:10:04.254Z,50.25
2022-10-24T01:11:04.273Z,50.25
2022-10-24T01:12:04.249Z,50.35
2022-10-24T01:13:04.214Z,50.25
2022-10-24T01:14:04.205Z,50.35
2022-10-24T01:15:04.205Z,50.25
2022-10-24T01:16:04.193Z,50.25
2022-10-24T01:17:04.199Z,50.35
2022-10-24T01:18:04.163Z,50.35
2022-10-24T01:19:04.170Z,50.25
2022-10-24T01:20:04.139Z,50.35
2022-10-24T01:21:04.132Z,50.37
2022-10-24T01:22:04.106Z,50.27
2022-10-24T01:23:04.170Z,50.27
2022-10-24T01:24:04.106Z,50.27
2022-10-24T01:25:04.077Z,50.25
2022-10-24T01:26:04.086Z,50.27
2022-10-24T01:27:04.117Z,50.27
2022-10-24T01:28:04.077Z,50.27
2022-10-24T01:29:04.081Z,50.15
2022-10-24T01:30:04.040Z,50.25
2022-10-24T01:31:04.009Z,50.15
2022-10-24T01:32:04.028Z,50.15
2022-10-24T01:33:04.019Z,50.15
2022-10-24T01:34:04.026Z,50.04
2022-10-24T01:35:03.986Z,50.04
2022-10-24T01:36:03.966Z,50.04
2022-10-24T01:37:03.958Z,50.04
2022-10-24T01:38:03.953Z,50.04
2022-10-24T01:39:03.923Z,49.95
2022-10-24T01:40:03.922Z,50.04
2022-10-24T01:41:03.900Z,49.95
2022-10-24T01:42:03.922Z,50.04
2022-10-24T01:43:03.870Z,49.84
2022-10-24T01:44:03.868Z,49.95
2022-10-24T01:45:03.881Z,49.95
2022-10-24T01:46:03.835Z,49.95
2022-10-24T01:47:03.823Z,49.84
2022-10-24T01:48:03.811Z,49.84
2022-10-24T01:49:03.802Z,49.84
2022-10-24T01:50:03.797Z,49.84
2022-10-24T01:51:03.804Z,49.84
2022-10-24T01:52:03.850Z,49.84
2022-10-24T01:53:03.762Z,49.84
2022-10-24T01:54:03.743Z,49.95
2022-10-24T01:55:03.750Z,49.95
2022-10-24T01:56:03.725Z,49.84
2022-10-24T01:57:03.745Z,49.95
2022-10-24T01:58:03.712Z,49.95
2022-10-24T01:59:03.693Z,49.95
2022-10-24T02:00:03.675Z,49.84
2022-10-24T02:01:03.734Z,49.95
2022-10-24T02:02:03.661Z,49.97
2022-10-24T02:03:03.666Z,49.97
2022-10-24T02:04:03.640Z,50.07
2022-10-24T02:05:03.624Z,50.17
2022-10-24T02:06:03.605Z,50.07
2022-10-24T02:07:03.611Z,50.17
2022-10-24T02:08:03.585Z,50.07
2022-10-24T02:10:03.563Z,50.07
2022-10-24T02:11:03.555Z,50.07
2022-10-24T02:12:03.545Z,50.17
2022-10-24T02:13:03.540Z,50.17
2022-10-24T02:14:03.567Z,50.27
2022-10-24T02:15:03.566Z,50.07
2022-10-24T02:16:03.496Z,50.17
2022-10-24T02:17:03.488Z,50.07
2022-10-24T02:18:03.487Z,50.17
2022-10-24T02:19:03.460Z,50.17
2022-10-24T02:20:03.519Z,50.17
2022-10-24T02:21:03.541Z,50.20
2022-10-24T02:22:03.565Z,50.20
2022-10-24T02:23:03.604Z,50.20
2022-10-24T02:24:03.409Z,50.20
2022-10-24T02:25:03.389Z,50.09
2022-10-24T02:26:03.416Z,49.97
2022-10-24T02:27:03.369Z,49.87
2022-10-24T02:28:03.367Z,49.87
2022-10-24T02:29:03.348Z,49.66
2022-10-24T02:30:03.359Z,49.64
2022-10-24T02:31:03.373Z,49.64
2022-10-24T02:32:03.322Z,49.54
2022-10-24T02:33:03.302Z,49.54
2022-10-24T02:34:03.327Z,49.54
2022-10-24T02:35:03.290Z,49.64
2022-10-24T02:36:03.270Z,49.64
2022-10-24T02:37:03.300Z,49.76
2022-10-24T02:38:03.265Z,49.76
2022-10-24T02:39:03.255Z,49.66
2022-10-24T02:40:03.334Z,49.66
2022-10-24T02:41:03.213Z,49.76
2022-10-24T02:42:03.231Z,49.66
2022-10-24T02:43:03.221Z,49.76
2022-10-24T02:44:03.202Z,49.76
2022-10-24T02:45:03.173Z,49.97
2022-10-24T02:46:03.161Z,49.87
2022-10-24T02:47:03.143Z,49.99
2022-10-24T02:48:03.186Z,50.20
2022-10-24T02:49:03.123Z,50.20
2022-10-24T02:50:03.130Z,49.58
2022-10-24T02:51:03.112Z,49.97
2022-10-24T02:52:03.085Z,49.87
2022-10-24T02:53:03.076Z,49.87
2022-10-24T02:54:03.103Z,49.87
2022-10-24T02:55:03.078Z,49.87
2022-10-24T02:56:03.064Z,50.40
2022-10-24T02:57:03.058Z,50.29
2022-10-24T02:58:03.024Z,50.32
2022-10-24T02:59:03.097Z,50.32
2022-10-24T03:00:03.294Z,50.32
2022-10-24T03:01:03.088Z,50.42
2022-10-24T03:02:03.001Z,50.22
2022-10-24T03:03:02.965Z,50.20
2022-10-24T03:04:02.961Z,50.20
2022-10-24T03:05:02.956Z,49.89
2022-10-24T03:06:02.996Z,49.89
2022-10-24T03:07:02.938Z,49.89
2022-10-24T03:08:02.931Z,49.89
2022-10-24T03:09:02.917Z,49.66
2022-10-24T03:10:02.909Z,49.56
2022-10-24T03:11:02.992Z,49.56
2022-10-24T03:12:02.883Z,49.56
2022-10-24T03:13:02.858Z,49.56
2022-10-24T03:14:02.848Z,49.46
2022-10-24T03:15:02.828Z,49.46
2022-10-24T03:16:02.822Z,49.33
2022-10-24T03:17:02.863Z,49.33
2022-10-24T03:18:02.803Z,49.33
2022-10-24T03:19:02.798Z,49.33
2022-10-24T03:20:02.791Z,49.44
2022-10-24T03:21:02.789Z,49.33
2022-10-24T03:22:02.770Z,49.33
2022-10-24T03:23:02.799Z,49.44
2022-10-24T03:24:02.854Z,49.44
2022-10-24T03:25:02.733Z,49.44
2022-10-24T03:26:02.701Z,49.44
2022-10-24T03:27:02.711Z,49.44
2022-10-24T03:28:02.697Z,49.44
2022-10-24T03:29:02.743Z,49.44
2022-10-24T03:30:02.665Z,49.54
2022-10-24T03:31:02.716Z,49.44
2022-10-24T03:32:02.698Z,49.44
2022-10-24T03:33:02.632Z,49.44
2022-10-24T03:34:02.620Z,49.54
2022-10-24T03:35:02.626Z,49.54
2022-10-24T03:36:02.602Z,49.44
2022-10-24T03:37:02.596Z,49.54
2022-10-24T03:38:02.593Z,49.64
2022-10-24T03:39:02.583Z,49.44
2022-10-24T03:40:02.554Z,49.64
2022-10-24T03:41:02.564Z,49.64
2022-10-24T03:42:02.542Z,49.64
2022-10-24T03:43:03.243Z,49.64
2022-10-24T03:44:02.533Z,49.74
2022-10-24T03:45:02.501Z,49.84
2022-10-24T03:46:02.518Z,49.95
2022-10-24T03:47:02.492Z,49.95
2022-10-24T03:48:02.506Z,50.04
2022-10-24T03:50:02.456Z,50.15
2022-10-24T03:51:02.469Z,50.15
2022-10-24T03:52:02.457Z,50.23
2022-10-24T03:53:02.398Z,50.23
2022-10-24T03:54:02.396Z,50.23
2022-10-24T03:55:02.376Z,50.53
2022-10-24T03:56:02.372Z,50.76
2022-10-24T03:57:02.351Z,50.65
2022-10-24T03:58:02.388Z,50.86
2022-10-24T03:59:02.329Z,50.86
2022-10-24T04:00:02.317Z,50.86
2022-10-24T04:01:02.415Z,50.96
2022-10-24T04:02:02.340Z,50.96
2022-10-24T04:03:02.289Z,50.96
2022-10-24T04:04:02.298Z,51.06
2022-10-24T04:05:02.333Z,51.06
2022-10-24T04:06:02.249Z,51.06
2022-10-24T04:07:02.251Z,51.06
2022-10-24T04:08:02.251Z,51.06
2022-10-24T04:09:02.220Z,51.06
2022-10-24T04:10:02.328Z,51.06
2022-10-24T04:11:02.200Z,51.06
2022-10-24T04:12:02.191Z,50.96
2022-10-24T04:13:02.190Z,50.96
2022-10-24T04:15:04.776Z,50.76
2022-10-24T04:16:02.142Z,50.76
2022-10-24T04:17:02.130Z,50.65
2022-10-24T04:18:02.126Z,50.65
2022-10-24T04:19:02.112Z,50.76
2022-10-24T04:20:02.110Z,50.76
2022-10-24T04:21:02.151Z,50.63
2022-10-24T04:22:02.081Z,50.73
2022-10-24T04:23:04.349Z,50.76
2022-10-24T04:24:02.055Z,50.73
2022-10-24T04:25:02.078Z,50.86
2022-10-24T04:26:02.032Z,50.63
2022-10-24T04:27:02.084Z,50.73
2022-10-24T04:28:02.003Z,50.84
2022-10-24T04:29:01.995Z,50.73
2022-10-24T04:30:01.984Z,50.73
2022-10-24T04:31:01.978Z,50.63
2022-10-24T04:32:01.952Z,50.73
2022-10-24T04:33:01.987Z,50.84
2022-10-24T04:34:01.933Z,50.73
2022-10-24T04:35:01.924Z,50.84
2022-10-24T04:36:01.913Z,50.73
2022-10-24T04:37:01.919Z,50.84
2022-10-24T04:38:01.885Z,50.84
2022-10-24T04:39:01.934Z,50.84
2022-10-24T04:40:01.864Z,50.93
2022-10-24T04:41:01.855Z,50.93
2022-10-24T04:42:01.856Z,51.04
2022-10-24T04:43:01.851Z,50.93
2022-10-24T04:44:01.815Z,50.93
2022-10-24T04:45:01.864Z,51.04
2022-10-24T04:46:01.809Z,51.16
2022-10-24T04:47:01.815Z,51.16
2022-10-24T04:48:01.786Z,51.37
2022-10-24T04:49:01.789Z,51.26
2022-10-24T04:50:01.749Z,51.37
2022-10-24T04:51:01.769Z,51.16
2022-10-24T04:52:01.728Z,51.26
2022-10-24T04:53:01.748Z,51.06
2022-10-24T04:54:01.697Z,51.06
2022-10-24T04:55:01.691Z,50.96
2022-10-24T04:56:01.698Z,50.96
2022-10-24T04:57:01.701Z,50.96
2022-10-24T04:58:01.671Z,50.86
2022-10-24T04:59:01.644Z,50.86
2022-10-24T05:00:01.718Z,50.84
2022-10-24T05:01:01.684Z,50.86
2022-10-24T05:02:01.669Z,50.86
2022-10-24T05:03:01.623Z,51.06
2022-10-24T05:05:01.579Z,51.06
2022-10-24T05:06:01.563Z,51.06
2022-10-24T05:07:01.557Z,50.96
2022-10-24T05:08:01.573Z,51.06
2022-10-24T05:09:01.535Z,51.06
2022-10-24T05:10:01.522Z,51.06
2022-10-24T05:11:01.502Z,51.06
2022-10-24T05:12:01.495Z,51.16
2022-10-24T05:13:01.489Z,51.06
2022-10-24T05:14:01.493Z,51.06
2022-10-24T05:15:01.461Z,51.16
2022-10-24T05:16:01.462Z,51.16
2022-10-24T05:17:01.444Z,51.06
2022-10-24T05:18:01.455Z,51.26
2022-10-24T05:19:01.452Z,51.24
2022-10-24T05:20:01.416Z,51.37
2022-10-24T05:21:01.382Z,51.44
2022-10-24T05:22:01.388Z,51.46
2022-10-24T05:23:01.373Z,51.57
2022-10-24T05:24:01.354Z,51.67
2022-10-24T05:25:01.375Z,51.77
2022-10-24T05:26:01.345Z,51.98
2022-10-24T05:27:01.322Z,51.98
2022-10-24T05:28:01.320Z,52.08
2022-10-24T05:29:01.339Z,52.18
2022-10-24T05:30:01.287Z,52.38
2022-10-24T05:31:01.286Z,52.48
2022-10-24T05:32:01.259Z,52.48
2022-10-24T05:33:01.242Z,52.48
2022-10-24T05:34:01.248Z,52.48
2022-10-24T05:35:01.231Z,52.69
2022-10-24T05:36:01.277Z,52.69
2022-10-24T05:37:01.199Z,52.69
2022-10-24T05:38:01.192Z,52.79
2022-10-24T05:39:01.180Z,52.89
2022-10-24T05:40:01.169Z,52.79
2022-10-24T05:41:01.158Z,52.89
2022-10-24T05:42:01.162Z,52.79
2022-10-24T05:43:01.128Z,52.79
2022-10-24T05:44:01.133Z,52.99
2022-10-24T05:45:01.108Z,52.89
2022-10-24T05:46:01.098Z,52.89
2022-10-24T05:47:01.109Z,52.99
2022-10-24T05:48:01.069Z,52.99
2022-10-24T05:49:01.069Z,53.09
2022-10-24T05:50:01.049Z,52.99
2022-10-24T05:51:01.041Z,52.79
2022-10-24T05:52:01.030Z,52.79
2022-10-24T05:53:01.043Z,52.89
2022-10-24T05:54:01.064Z,52.97
2022-10-24T05:55:07.725Z,53.09
2022-10-24T05:56:01.970Z,53.06
2022-10-24T05:57:00.970Z,53.06
2022-10-24T05:58:00.991Z,53.37
2022-10-24T05:59:00.943Z,53.58
2022-10-24T06:00:01.008Z,53.88
2022-10-24T06:01:00.954Z,54.08
2022-10-24T06:02:01.000Z,54.28
2022-10-24T06:03:00.902Z,54.39
2022-10-24T06:04:00.912Z,54.59
2022-10-24T06:05:00.892Z,54.90
2022-10-24T06:06:00.871Z,55.20
2022-10-24T06:07:00.863Z,55.60
2022-10-24T06:08:00.844Z,55.91
2022-10-24T06:09:00.836Z,56.31
2022-10-24T06:10:00.845Z,56.52
2022-10-24T06:11:00.952Z,56.92
2022-10-24T06:12:00.997Z,57.12
2022-10-24T06:13:00.914Z,57.33
2022-10-24T06:14:00.765Z,57.43
2022-10-24T06:15:00.764Z,57.73
2022-10-24T06:16:00.775Z,57.43
2022-10-24T06:17:00.737Z,57.43
2022-10-24T06:18:00.727Z,57.53
2022-10-24T06:19:00.737Z,57.64
2022-10-24T06:20:00.722Z,57.93
2022-10-24T06:21:00.751Z,57.73
2022-10-24T06:22:00.676Z,57.91
2022-10-24T06:23:00.671Z,58.31
2022-10-24T06:24:00.656Z,58.52
2022-10-24T06:25:00.646Z,58.72
2022-10-24T06:26:00.633Z,58.82
2022-10-24T06:27:00.663Z,58.92
2022-10-24T06:28:00.708Z,59.12
2022-10-24T06:29:00.606Z,59.33
2022-10-24T06:30:00.582Z,59.74
2022-10-24T06:31:00.594Z,59.84
2022-10-24T06:32:00.557Z,60.24
2022-10-24T06:33:00.578Z,60.55
2022-10-24T06:34:00.566Z,60.95
2022-10-24T06:35:00.528Z,61.36
2022-10-24T06:36:00.518Z,61.76
2022-10-24T06:37:00.499Z,61.87
2022-10-24T06:38:00.493Z,61.97
2022-10-24T06:39:00.521Z,62.37
2022-10-24T06:40:00.470Z,62.98
2022-10-24T06:41:00.473Z,63.59
2022-10-24T06:42:00.448Z,64.20
2022-10-24T06:43:00.441Z,64.61
2022-10-24T06:44:00.413Z,64.98
2022-10-24T06:46:00.405Z,65.99
2022-10-24T06:47:00.391Z,66.30
2022-10-24T06:48:00.376Z,66.09
2022-10-24T06:49:00.361Z,66.19
2022-10-24T06:50:00.379Z,66.19
2022-10-24T06:51:00.365Z,66.09
2022-10-24T06:52:00.345Z,66.09
2022-10-24T06:53:00.334Z,66.19
2022-10-24T06:54:00.359Z,66.19
2022-10-24T06:55:00.303Z,66.30
2022-10-24T06:56:00.382Z,66.40
2022-10-24T06:57:00.284Z,66.70
2022-10-24T06:58:00.265Z,66.80
2022-10-24T06:59:00.239Z,66.70
2022-10-24T07:00:00.235Z,66.70
2022-10-24T07:01:00.314Z,66.91
2022-10-24T07:02:03.247Z,67.11
2022-10-24T07:03:01.201Z,67.31
2022-10-24T07:04:00.186Z,67.41
2022-10-24T07:05:00.166Z,67.41
2022-10-24T07:06:00.166Z,67.41
2022-10-24T07:07:00.154Z,67.21
2022-10-24T07:08:00.176Z,67.21
2022-10-24T07:09:00.142Z,67.21
2022-10-24T07:10:00.122Z,67.31
2022-10-24T07:11:00.189Z,67.41
2022-10-24T07:12:00.095Z,67.51
2022-10-24T07:13:00.107Z,67.51
2022-10-24T07:14:01.671Z,67.72
2022-10-24T07:15:00.076Z,67.41
2022-10-24T07:16:00.068Z,67.21
2022-10-24T07:17:00.038Z,67.11
2022-10-24T07:18:00.018Z,67.41
2022-10-24T07:19:00.050Z,66.91
2022-10-24T07:19:59.990Z,66.91
2022-10-24T07:20:59.984Z,66.70
2022-10-24T07:21:59.968Z,66.30
2022-10-24T07:22:59.962Z,66.19
2022-10-24T07:23:59.977Z,65.99
2022-10-24T07:24:59.944Z,65.92
2022-10-24T07:25:59.950Z,66.13
2022-10-24T07:26:59.915Z,65.52
2022-10-24T07:27:59.902Z,65.31
2022-10-24T07:28:59.919Z,65.11
2022-10-24T07:30:03.105Z,65.11
2022-10-24T07:31:00.870Z,64.91
2022-10-24T07:31:59.851Z,64.81
2022-10-24T07:32:59.835Z,64.40
2022-10-24T07:33:59.831Z,64.30
2022-10-24T07:34:59.860Z,64.20
2022-10-24T07:35:59.852Z,64.00
2022-10-24T07:36:59.784Z,63.79
2022-10-24T07:37:59.776Z,63.39
2022-10-24T07:38:59.762Z,63.29
2022-10-24T07:39:59.762Z,62.98
2022-10-24T07:40:59.811Z,63.08
2022-10-24T07:41:59.734Z,62.98
2022-10-24T07:42:59.716Z,62.88
2022-10-24T07:43:59.705Z,63.18
2022-10-24T07:44:59.704Z,62.57
2022-10-24T07:46:59.708Z,62.48
2022-10-24T07:47:59.667Z,62.68
2022-10-24T07:48:59.653Z,62.78
2022-10-24T07:49:59.633Z,62.57
2022-10-24T07:50:59.615Z,62.68
2022-10-24T07:51:59.606Z,62.57
2022-10-24T07:52:59.616Z,62.68
2022-10-24T07:53:59.584Z,62.78
2022-10-24T07:54:59.571Z,62.68
2022-10-24T07:55:59.566Z,62.88
2022-10-24T07:56:59.570Z,63.18
2022-10-24T07:57:59.587Z,63.69
2022-10-24T07:58:59.911Z,63.79
2022-10-24T07:59:59.543Z,64.98
2022-10-24T08:00:59.517Z,66.19
2022-10-24T08:01:59.506Z,67.11
2022-10-24T08:02:59.503Z,68.12
2022-10-24T08:03:59.509Z,69.03
2022-10-24T08:04:59.488Z,69.10
2022-10-24T08:05:59.441Z,70.12
2022-10-24T08:06:59.441Z,70.52
2022-10-24T08:08:11.940Z,70.83
2022-10-24T08:09:00.438Z,71.44
2022-10-24T08:09:59.409Z,72.55
2022-10-24T08:11:02.167Z,73.05
2022-10-24T08:11:59.378Z,73.53
2022-10-24T08:12:59.359Z,73.32
2022-10-24T08:13:59.371Z,73.43
2022-10-24T08:14:59.350Z,73.32
2022-10-24T08:15:59.354Z,73.83
2022-10-24T08:16:59.330Z,73.93
2022-10-24T08:17:59.310Z,74.44
2022-10-24T08:18:59.299Z,75.45
2022-10-24T08:19:59.273Z,75.55
2022-10-24T08:20:59.321Z,76.46
2022-10-24T08:21:59.256Z,77.07
2022-10-24T08:22:59.251Z,76.23
2022-10-24T08:23:59.222Z,77.64
2022-10-24T08:24:59.238Z,77.95
2022-10-24T08:25:59.213Z,79.16
2022-10-24T08:26:59.253Z,79.77
2022-10-24T08:27:59.692Z,80.18
2022-10-24T08:28:59.176Z,81.29
2022-10-24T08:29:59.144Z,80.84
2022-10-24T08:30:59.133Z,81.25
2022-10-24T08:31:59.123Z,81.85
2022-10-24T08:32:59.134Z,83.78
2022-10-24T08:33:59.114Z,84.28
2022-10-24T08:34:59.095Z,84.34
2022-10-24T08:35:59.082Z,86.67
2022-10-24T08:36:59.066Z,86.57
2022-10-24T08:37:59.056Z,86.47
2022-10-24T08:38:59.099Z,86.27
2022-10-24T08:39:59.045Z,86.87
2022-10-24T08:40:59.020Z,86.67
2022-10-24T08:42:00.316Z,87.13
2022-10-24T08:42:59.006Z,87.64
2022-10-24T08:43:59.007Z,88.25
2022-10-24T08:44:59.016Z,87.34
2022-10-24T08:45:58.968Z,87.24
2022-10-24T08:46:58.958Z,87.84
2022-10-24T08:47:58.937Z,87.95
2022-10-24T08:48:58.927Z,88.35
2022-10-24T08:49:58.917Z,87.95
2022-10-24T08:50:58.930Z,87.34
2022-10-24T08:51:58.900Z,88.15
2022-10-24T08:52:58.878Z,87.95
2022-10-24T08:53:58.878Z,87.44
2022-10-24T08:55:02.051Z,87.24
2022-10-24T08:55:59.910Z,87.44
2022-10-24T08:56:58.851Z,86.93
2022-10-24T08:57:58.833Z,87.34
2022-10-24T08:58:58.830Z,87.30
2022-10-24T08:59:58.810Z,87.19
2022-10-24T09:00:58.851Z,87.90
2022-10-24T09:02:01.962Z,88.10
2022-10-24T09:02:59.878Z,88.21
2022-10-24T09:03:58.804Z,88.92
2022-10-24T09:04:58.781Z,88.21
2022-10-24T09:05:58.753Z,88.21
2022-10-24T09:06:58.736Z,87.81
2022-10-24T09:07:58.770Z,87.40
2022-10-24T09:08:58.717Z,86.99
2022-10-24T09:09:58.734Z,86.99
2022-10-24T09:10:58.681Z,86.49
2022-10-24T09:11:58.694Z,86.39
2022-10-24T09:12:58.693Z,86.43
2022-10-24T09:13:58.692Z,86.49
2022-10-24T09:14:58.671Z,86.59
2022-10-24T09:15:58.667Z,87.19
2022-10-24T09:16:58.628Z,86.39
2022-10-24T09:17:58.620Z,86.69
2022-10-24T09:18:58.624Z,86.59
2022-10-24T09:19:58.621Z,86.49
2022-10-24T09:20:58.598Z,87.19
2022-10-24T09:21:58.546Z,86.79
2022-10-24T09:22:58.555Z,86.99
2022-10-24T09:23:58.548Z,87.10
2022-10-24T09:24:58.566Z,86.55
2022-10-24T09:25:58.515Z,86.45
2022-10-24T09:26:58.538Z,86.95
2022-10-24T09:27:58.497Z,87.96
2022-10-24T09:28:58.487Z,87.32
2022-10-24T09:29:58.529Z,88.32
2022-10-24T09:30:58.519Z,89.23
2022-10-24T09:31:58.507Z,89.34
2022-10-24T09:32:58.468Z,89.74
2022-10-24T09:33:58.440Z,89.50
2022-10-24T09:34:58.460Z,89.39
2022-10-24T09:35:58.417Z,89.59
2022-10-24T09:36:58.391Z,90.00
2022-10-24T09:37:58.368Z,89.59
2022-10-24T09:38:58.420Z,89.59
2022-10-24T09:39:58.339Z,89.79
2022-10-24T09:40:58.400Z,89.90
2022-10-24T09:41:58.326Z,89.79
2022-10-24T09:42:58.320Z,89.50
2022-10-24T09:43:58.378Z,89.79
2022-10-24T09:44:58.336Z,89.90
2022-10-24T09:45:58.304Z,90.16
2022-10-24T09:46:58.299Z,90.46
2022-10-24T09:47:58.252Z,89.25
2022-10-24T09:48:58.250Z,89.55
2022-10-24T09:49:58.250Z,90.16
2022-10-24T09:50:58.240Z,89.45
2022-10-24T09:51:58.234Z,89.65
2022-10-24T09:52:58.347Z,90.26
2022-10-24T09:53:58.202Z,89.61
2022-10-24T09:54:58.242Z,90.66
2022-10-24T09:55:58.161Z,89.75
2022-10-24T09:56:58.173Z,89.75
2022-10-24T09:57:58.140Z,89.86
2022-10-24T09:58:58.146Z,89.75
2022-10-24T09:59:58.133Z,89.86
2022-10-24T10:00:58.139Z,89.86
2022-10-24T10:01:58.192Z,88.95
2022-10-24T10:02:58.077Z,88.45
2022-10-24T10:03:58.117Z,88.75
2022-10-24T10:04:58.105Z,88.34
2022-10-24T10:05:58.058Z,88.95
2022-10-24T10:06:58.141Z,89.19
2022-10-24T10:07:58.045Z,88.48
2022-10-24T10:08:58.016Z,88.28
2022-10-24T10:09:58.080Z,88.45
2022-10-24T10:10:58.086Z,87.84
2022-10-24T10:12:02.316Z,88.04
2022-10-24T10:12:58.956Z,87.54
2022-10-24T10:13:57.976Z,87.63
2022-10-24T10:14:57.959Z,87.34
2022-10-24T10:15:57.958Z,87.60
2022-10-24T10:16:57.961Z,87.90
2022-10-24T10:17:57.918Z,88.81
2022-10-24T10:18:57.908Z,89.41
2022-10-24T10:19:57.873Z,89.61
2022-10-24T10:20:57.861Z,89.91
2022-10-24T10:21:57.879Z,89.71
2022-10-24T10:22:57.831Z,89.47
2022-10-24T10:23:57.828Z,89.73
2022-10-24T10:24:57.810Z,90.94
2022-10-24T10:25:57.878Z,90.88
2022-10-24T10:26:57.822Z,89.37
2022-10-24T10:28:00.999Z,89.37
2022-10-24T10:28:58.761Z,89.81
2022-10-24T10:29:57.761Z,89.61
2022-10-24T10:30:57.751Z,89.01
2022-10-24T10:31:57.838Z,88.30
2022-10-24T10:32:57.752Z,88.81
2022-10-24T10:33:57.736Z,88.81
2022-10-24T10:34:57.710Z,88.20
2022-10-24T10:35:57.706Z,87.70
2022-10-24T10:36:57.662Z,88.76
2022-10-24T10:37:57.684Z,88.66
2022-10-24T10:38:57.663Z,87.92
2022-10-24T10:39:57.644Z,90.44
2022-10-24T10:40:57.640Z,90.37
2022-10-24T10:41:57.616Z,90.03
2022-10-24T10:42:57.599Z,88.82
2022-10-24T10:43:57.655Z,90.29
2022-10-24T10:44:57.574Z,89.99
2022-10-24T10:45:57.565Z,90.49
2022-10-24T10:46:57.554Z,89.99
2022-10-24T10:47:57.547Z,90.79
2022-10-24T10:48:57.521Z,91.30
2022-10-24T10:49:57.552Z,91.09
2022-10-24T10:50:57.525Z,91.70
2022-10-24T10:51:57.490Z,90.49
2022-10-24T10:52:57.488Z,90.69
2022-10-24T10:53:57.480Z,89.75
2022-10-24T10:54:57.467Z,91.46
2022-10-24T10:55:57.467Z,91.31
2022-10-24T10:56:57.449Z,91.91
2022-10-24T10:57:57.429Z,92.61
2022-10-24T10:58:57.420Z,92.82
2022-10-24T10:59:57.397Z,92.97
2022-10-24T11:00:57.446Z,92.57
2022-10-24T11:01:57.558Z,91.63
2022-10-24T11:02:57.547Z,91.63
2022-10-24T11:03:57.350Z,93.03
2022-10-24T11:04:57.352Z,93.54
2022-10-24T11:05:57.360Z,93.63
2022-10-24T11:06:57.404Z,93.33
2022-10-24T11:07:57.330Z,93.69
2022-10-24T11:08:57.299Z,94.24
2022-10-24T11:09:57.301Z,94.54
2022-10-24T11:10:57.272Z,93.84
2022-10-24T11:11:57.294Z,94.34
2022-10-24T11:12:57.289Z,94.49
2022-10-24T11:13:57.319Z,94.70
2022-10-24T11:14:57.271Z,94.74
2022-10-24T11:15:57.238Z,94.74
2022-10-24T11:16:57.213Z,94.54
2022-10-24T11:17:57.192Z,94.64
2022-10-24T11:18:57.212Z,94.74
2022-10-24T11:19:57.181Z,94.24
2022-10-24T11:20:57.154Z,94.79
2022-10-24T11:21:57.199Z,94.54
2022-10-24T11:22:57.204Z,93.54
2022-10-24T11:23:57.122Z,94.13
2022-10-24T11:24:57.135Z,94.04
2022-10-24T11:25:57.104Z,93.54
2022-10-24T11:26:57.106Z,93.59
2022-10-24T11:27:57.077Z,95.14
2022-10-24T11:28:57.074Z,95.14
2022-10-24T11:29:57.097Z,94.54
2022-10-24T11:30:57.049Z,95.04
2022-10-24T11:31:57.080Z,95.44
2022-10-24T11:32:57.048Z,94.94
2022-10-24T11:33:57.009Z,95.39
2022-10-24T11:34:56.996Z,94.79
2022-10-24T11:35:57.037Z,94.89
2022-10-24T11:36:56.990Z,94.18
2022-10-24T11:37:56.968Z,94.33
2022-10-24T11:38:57.037Z,93.73
2022-10-24T11:39:56.959Z,94.23
2022-10-24T11:40:58.823Z,94.23
2022-10-24T11:41:56.960Z,93.52
2022-10-24T11:42:56.980Z,94.02
2022-10-24T11:43:56.899Z,93.52
2022-10-24T11:44:56.913Z,94.13
2022-10-24T11:45:57.912Z,96.04
2022-10-24T11:46:56.871Z,95.64
2022-10-24T11:47:57.015Z,95.33
2022-10-24T11:48:56.841Z,96.30
2022-10-24T11:49:57.056Z,95.79
2022-10-24T11:50:56.967Z,95.59
2022-10-24T11:51:56.920Z,95.69
2022-10-24T11:52:56.852Z,95.49
2022-10-24T11:53:56.803Z,95.89
2022-10-24T11:54:56.809Z,94.54
2022-10-24T11:55:56.754Z,95.24
2022-10-24T11:56:56.756Z,95.34
2022-10-24T11:57:56.743Z,95.34
2022-10-24T11:58:56.880Z,95.79
2022-10-24T11:59:56.717Z,95.79
2022-10-24T12:00:56.704Z,96.19
2022-10-24T12:01:56.704Z,96.15
2022-10-24T12:02:56.729Z,97.15
2022-10-24T12:03:56.664Z,96.45
2022-10-24T12:04:56.687Z,96.50
2022-10-24T12:05:56.658Z,96.91
2022-10-24T12:06:56.643Z,96.45
2022-10-24T12:07:56.634Z,96.76
2022-10-24T12:08:56.606Z,96.51
2022-10-24T12:09:56.633Z,96.86
2022-10-24T12:10:56.596Z,96.61
2022-10-24T12:11:56.579Z,96.01
2022-10-24T12:12:56.855Z,95.71
2022-10-24T12:13:56.570Z,96.01
2022-10-24T12:14:56.567Z,96.31
2022-10-24T12:15:56.549Z,95.91
2022-10-24T12:16:56.519Z,96.41
2022-10-24T12:17:56.508Z,95.81
2022-10-24T12:18:56.498Z,95.76
2022-10-24T12:19:56.481Z,95.47
2022-10-24T12:20:56.479Z,96.06
2022-10-24T12:21:56.510Z,96.17
2022-10-24T12:22:56.449Z,93.16
2022-10-24T12:23:56.430Z,92.85
2022-10-24T12:24:56.430Z,93.96
2022-10-24T12:25:56.411Z,93.46
2022-10-24T12:26:56.401Z,93.86
2022-10-24T12:27:56.414Z,92.05
2022-10-24T12:28:56.386Z,89.65
2022-10-24T12:29:56.378Z,86.74
2022-10-24T12:30:56.354Z,88.44
2022-10-24T12:31:56.342Z,89.14
2022-10-24T12:32:56.332Z,84.33
2022-10-24T12:33:56.352Z,82.32
2022-10-24T12:35:12.304Z,83.93
2022-10-24T12:35:57.420Z,85.63
2022-10-24T12:36:56.275Z,83.17
2022-10-24T12:37:56.267Z,82.17
2022-10-24T12:38:56.269Z,83.83
2022-10-24T12:39:58.520Z,81.62
2022-10-24T12:40:56.235Z,83.23
2022-10-24T12:41:56.331Z,79.75
2022-10-24T12:42:56.324Z,77.91
2022-10-24T12:43:56.251Z,79.42
2022-10-24T12:44:56.297Z,81.52
2022-10-24T12:45:56.276Z,75.60
2022-10-24T12:46:56.296Z,78.42
2022-10-24T12:48:56.192Z,75.67
2022-10-24T12:49:56.144Z,71.86
2022-10-24T12:50:56.264Z,72.97
2022-10-24T12:51:56.310Z,76.47
2022-10-24T12:52:56.467Z,75.27
2022-10-24T12:53:56.180Z,76.57
2022-10-24T12:54:56.148Z,75.91
2022-10-24T12:55:56.176Z,76.21
2022-10-24T12:56:56.112Z,76.41
2022-10-24T12:57:56.318Z,77.41
2022-10-24T12:58:56.165Z,75.17
2022-10-24T12:59:56.250Z,75.67